createdAt,value
2019-03-24T00:00:50.596Z,93.30
2019-03-24T00:03:20.060Z,93.70
2019-03-24T00:05:49.796Z,93.50
2019-03-24T00:08:19.254Z,93.70
2019-03-24T00:10:49.185Z,93.80
2019-03-24T00:13:18.561Z,93.90
2019-03-24T00:15:48.329Z,93.90
2019-03-24T00:18:17.877Z,94.00
2019-03-24T00:20:47.465Z,94.10
2019-03-24T00:23:16.946Z,94.20
2019-03-24T00:25:46.773Z,94.50
2019-03-24T00:28:16.242Z,94.50
2019-03-24T00:30:45.905Z,94.40
2019-03-24T00:33:15.433Z,94.60
2019-03-24T00:35:44.990Z,94.60
2019-03-24T00:38:14.579Z,94.70
2019-03-24T00:40:44.195Z,94.70
2019-03-24T00:43:13.717Z,94.90
2019-03-24T00:45:43.199Z,95.10
2019-03-24T00:48:12.769Z,95.10
2019-03-24T00:50:42.217Z,95.50
2019-03-24T00:53:11.669Z,95.50
2019-03-24T00:55:41.417Z,95.50
2019-03-24T00:58:11.912Z,95.40
2019-03-24T01:00:46.438Z,95.60
2019-03-24T01:03:16.345Z,95.40
2019-03-24T01:05:46.733Z,95.80
2019-03-24T01:08:16.736Z,95.80
2019-03-24T01:10:46.298Z,96.00
2019-03-24T01:13:16.378Z,95.90
2019-03-24T01:15:47.962Z,96.10
2019-03-24T01:18:17.814Z,96.10
2019-03-24T01:20:47.301Z,96.20
2019-03-24T01:23:16.795Z,96.20
2019-03-24T01:25:46.435Z,96.20
2019-03-24T01:28:15.884Z,96.20
2019-03-24T01:30:45.413Z,96.20
2019-03-24T01:33:15.446Z,96.30
2019-03-24T01:35:45.158Z,96.50
2019-03-24T01:38:14.611Z,96.60
2019-03-24T01:40:44.163Z,96.60
2019-03-24T01:43:13.613Z,96.50
2019-03-24T01:45:43.077Z,96.50
2019-03-24T01:48:12.624Z,96.50
2019-03-24T01:50:42.274Z,96.60
2019-03-24T01:53:11.755Z,96.80
2019-03-24T01:55:41.283Z,96.80
2019-03-24T01:58:10.773Z,97.10
2019-03-24T02:00:40.325Z,96.80
2019-03-24T02:03:09.769Z,96.80
2019-03-24T02:05:39.156Z,96.80
2019-03-24T02:08:08.605Z,96.90
2019-03-24T02:10:38.123Z,96.90
2019-03-24T02:13:07.757Z,97.00
2019-03-24T02:15:37.298Z,97.10
2019-03-24T02:18:06.815Z,97.10
2019-03-24T02:20:36.269Z,97.20
2019-03-24T02:23:05.897Z,97.30
2019-03-24T02:25:35.429Z,97.40
2019-03-24T02:28:04.978Z,97.50
2019-03-24T02:30:34.508Z,97.60
2019-03-24T02:33:04.026Z,97.70
2019-03-24T02:35:33.498Z,98.00
2019-03-24T02:38:02.961Z,98.00
2019-03-24T02:40:32.672Z,97.90
2019-03-24T02:43:02.372Z,97.80
2019-03-24T02:45:32.181Z,97.80
2019-03-24T02:48:01.655Z,97.90
2019-03-24T02:50:31.039Z,98.00
2019-03-24T02:53:01.113Z,97.90
2019-03-24T02:55:30.600Z,97.90
2019-03-24T02:58:00.051Z,98.00
2019-03-24T03:00:29.591Z,97.90
2019-03-24T03:02:59.039Z,98.10
2019-03-24T03:05:28.497Z,98.30
2019-03-24T03:07:58.060Z,98.20
2019-03-24T03:10:27.570Z,98.00
2019-03-24T03:12:57.087Z,97.90
2019-03-24T03:15:26.614Z,98.30
2019-03-24T03:17:56.580Z,98.30
2019-03-24T03:20:26.106Z,98.50
2019-03-24T03:22:55.693Z,98.30
2019-03-24T03:25:26.413Z,98.30
2019-03-24T03:27:55.801Z,98.50
2019-03-24T03:30:25.250Z,98.40
2019-03-24T03:32:54.741Z,98.50
2019-03-24T03:35:24.327Z,98.30
2019-03-24T03:37:54.118Z,98.50
2019-03-24T03:40:23.758Z,98.40
2019-03-24T03:42:53.344Z,98.70
2019-03-24T03:45:29.646Z,98.60
2019-03-24T03:47:59.121Z,98.60
2019-03-24T03:50:28.853Z,98.90
2019-03-24T03:52:58.454Z,98.90
2019-03-24T03:55:28.124Z,98.70
2019-03-24T03:57:57.608Z,98.90
2019-03-24T04:00:33.349Z,99.00
2019-03-24T04:03:03.279Z,98.90
2019-03-24T04:05:32.798Z,99.00
2019-03-24T04:08:02.569Z,99.30
2019-03-24T04:10:32.103Z,99.30
2019-03-24T04:13:01.486Z,99.10
2019-03-24T04:15:30.957Z,99.10
2019-03-24T04:18:00.527Z,99.30
2019-03-24T04:20:30.079Z,99.20
2019-03-24T04:22:59.462Z,99.30
2019-03-24T04:25:28.992Z,99.30
2019-03-24T04:27:58.498Z,99.20
2019-03-24T04:30:28.281Z,99.40
2019-03-24T04:32:57.753Z,99.20
2019-03-24T04:35:27.116Z,99.20
2019-03-24T04:37:56.863Z,99.40
2019-03-24T04:40:26.722Z,99.20
2019-03-24T04:42:56.440Z,98.80
2019-03-24T04:45:25.822Z,99.10
2019-03-24T04:47:55.284Z,99.50
2019-03-24T04:50:25.104Z,99.50
2019-03-24T04:52:54.821Z,99.70
2019-03-24T04:55:24.353Z,99.70
2019-03-24T04:57:53.956Z,99.60
2019-03-24T05:00:34.086Z,99.80
2019-03-24T05:03:03.546Z,99.60
2019-03-24T05:05:33.366Z,99.40
2019-03-24T05:08:03.101Z,99.30
2019-03-24T05:10:32.553Z,99.40
2019-03-24T05:13:02.021Z,99.50
2019-03-24T05:15:31.469Z,99.90
2019-03-24T05:18:01.059Z,99.80
2019-03-24T05:20:30.525Z,99.60
2019-03-24T05:23:00.632Z,99.80
2019-03-24T05:25:30.065Z,99.80
2019-03-24T05:27:59.557Z,99.80
2019-03-24T05:30:29.287Z,99.90
2019-03-24T05:32:58.782Z,99.90
2019-03-24T05:35:28.253Z,99.90
2019-03-24T05:37:57.816Z,99.90
2019-03-24T05:40:27.293Z,99.90
2019-03-24T05:42:56.677Z,99.90
2019-03-24T05:45:26.157Z,99.90
2019-03-24T05:47:55.613Z,99.90
2019-03-24T05:50:25.178Z,99.90
2019-03-24T05:52:54.629Z,99.90
2019-03-24T05:55:24.462Z,99.90
2019-03-24T05:57:53.900Z,99.90
2019-03-24T06:00:23.368Z,99.90
2019-03-24T06:02:52.829Z,99.90
2019-03-24T06:05:22.325Z,99.90
2019-03-24T06:07:52.128Z,99.60
2019-03-24T06:10:21.656Z,99.70
2019-03-24T06:12:51.209Z,99.80
2019-03-24T06:15:20.699Z,99.60
2019-03-24T06:17:50.074Z,99.40
2019-03-24T06:20:19.472Z,99.10
2019-03-24T06:22:49.002Z,99.20
2019-03-24T06:25:18.462Z,99.30
2019-03-24T06:27:48.061Z,98.90
2019-03-24T06:30:17.807Z,98.80
2019-03-24T06:32:47.263Z,98.80
2019-03-24T06:35:17.160Z,98.40
2019-03-24T06:37:47.266Z,98.50
2019-03-24T06:40:19.760Z,98.80
2019-03-24T06:42:48.973Z,98.80
2019-03-24T06:45:27.970Z,98.50
2019-03-24T06:47:57.576Z,98.30
2019-03-24T06:50:20.911Z,98.20
2019-03-24T06:52:50.462Z,98.10
2019-03-24T06:55:19.878Z,97.80
2019-03-24T06:57:49.405Z,97.50
2019-03-24T07:00:19.144Z,97.50
2019-03-24T07:02:48.686Z,97.30
2019-03-24T07:05:18.137Z,97.20
2019-03-24T07:07:49.172Z,97.10
2019-03-24T07:10:18.711Z,96.40
2019-03-24T07:12:48.175Z,96.20
2019-03-24T07:15:18.042Z,96.10
2019-03-24T07:17:48.713Z,95.90
2019-03-24T07:20:18.297Z,95.90
2019-03-24T07:22:48.067Z,96.00
2019-03-24T07:25:17.603Z,98.90
2019-03-24T07:27:47.168Z,95.80
2019-03-24T07:30:17.019Z,95.30
2019-03-24T07:32:46.457Z,95.00
2019-03-24T07:35:18.230Z,95.10
2019-03-24T07:37:47.148Z,94.60
2019-03-24T07:40:16.893Z,95.60
2019-03-24T07:42:46.354Z,94.80
2019-03-24T07:45:15.978Z,94.00
2019-03-24T07:47:45.492Z,94.30
2019-03-24T07:50:15.270Z,94.00
2019-03-24T07:52:45.175Z,93.60
2019-03-24T07:55:15.047Z,93.10
2019-03-24T07:57:44.856Z,93.50
2019-03-24T08:00:15.933Z,92.90
2019-03-24T08:02:51.778Z,93.00
2019-03-24T08:05:21.253Z,93.00
2019-03-24T08:07:51.137Z,92.70
2019-03-24T08:10:20.703Z,92.60
2019-03-24T08:12:50.227Z,92.60
2019-03-24T08:15:19.796Z,92.20
2019-03-24T08:17:49.258Z,92.30
2019-03-24T08:20:19.120Z,92.20
2019-03-24T08:22:48.901Z,92.30
2019-03-24T08:25:19.239Z,91.80
2019-03-24T08:27:48.941Z,91.90
2019-03-24T08:30:46.104Z,91.90
2019-03-24T08:33:15.775Z,91.30
2019-03-24T08:35:45.253Z,91.50
2019-03-24T08:38:14.893Z,91.50
2019-03-24T08:40:44.826Z,91.10
2019-03-24T08:43:14.355Z,90.80
2019-03-24T08:45:43.805Z,90.60
2019-03-24T08:48:13.298Z,90.30
2019-03-24T08:50:42.830Z,90.70
2019-03-24T08:53:12.297Z,90.00
2019-03-24T08:55:41.866Z,89.20
2019-03-24T08:58:11.260Z,90.80
2019-03-24T09:00:41.255Z,90.90
2019-03-24T09:03:10.738Z,91.40
2019-03-24T09:05:40.223Z,91.30
2019-03-24T09:08:09.735Z,90.50
2019-03-24T09:10:39.253Z,88.10
2019-03-24T09:13:09.190Z,89.20
2019-03-24T09:15:39.735Z,86.80
2019-03-24T09:18:09.294Z,86.40
2019-03-24T09:20:41.912Z,85.90
2019-03-24T09:23:10.725Z,84.60
2019-03-24T09:25:40.397Z,84.80
2019-03-24T09:28:09.964Z,87.00
2019-03-24T09:30:39.705Z,86.20
2019-03-24T09:33:09.445Z,87.00
2019-03-24T09:35:38.904Z,86.60
2019-03-24T09:38:08.404Z,86.00
2019-03-24T09:40:38.191Z,84.60
2019-03-24T09:43:07.990Z,83.40
2019-03-24T09:45:37.465Z,85.80
2019-03-24T09:48:07.961Z,82.70
2019-03-24T09:50:37.601Z,82.60
2019-03-24T09:53:07.145Z,84.20
2019-03-24T09:55:36.990Z,82.90
2019-03-24T09:58:06.641Z,81.30
2019-03-24T10:00:36.688Z,81.70
2019-03-24T10:03:06.529Z,81.80
2019-03-24T10:05:35.974Z,81.50
2019-03-24T10:08:05.549Z,81.60
2019-03-24T10:10:35.081Z,80.00
2019-03-24T10:13:04.625Z,78.20
2019-03-24T10:15:35.866Z,78.70
2019-03-24T10:18:05.414Z,79.00
2019-03-24T10:20:34.890Z,78.30
2019-03-24T10:23:04.422Z,75.60
2019-03-24T10:25:33.944Z,74.10
2019-03-24T10:28:03.477Z,74.70
2019-03-24T10:30:32.932Z,74.20
2019-03-24T10:33:02.329Z,74.90
2019-03-24T10:35:31.709Z,71.90
2019-03-24T10:38:01.477Z,72.20
2019-03-24T10:40:31.245Z,70.80
2019-03-24T10:43:00.701Z,72.30
2019-03-24T10:45:30.244Z,70.60
2019-03-24T10:47:59.881Z,69.90
2019-03-24T10:50:29.334Z,68.80
2019-03-24T10:52:58.830Z,69.20
2019-03-24T10:55:28.609Z,68.70
2019-03-24T10:57:58.095Z,68.40
2019-03-24T11:00:38.049Z,67.50
2019-03-24T11:03:07.918Z,68.00
2019-03-24T11:05:37.376Z,68.00
2019-03-24T11:08:07.073Z,68.10
2019-03-24T11:10:36.713Z,64.70
2019-03-24T11:13:06.462Z,66.10
2019-03-24T11:15:36.190Z,66.00
2019-03-24T11:18:05.817Z,67.10
2019-03-24T11:20:35.272Z,65.10
2019-03-24T11:23:05.288Z,64.30
2019-03-24T11:25:34.855Z,62.70
2019-03-24T11:28:04.727Z,62.30
2019-03-24T11:30:34.262Z,63.60
2019-03-24T11:33:03.826Z,62.60
2019-03-24T11:35:33.217Z,63.10
2019-03-24T11:38:03.049Z,59.80
2019-03-24T11:40:32.504Z,58.80
2019-03-24T11:43:01.896Z,59.80
2019-03-24T11:45:31.370Z,58.90
2019-03-24T11:48:00.752Z,58.30
2019-03-24T11:50:30.280Z,55.50
2019-03-24T11:52:59.821Z,57.20
2019-03-24T11:55:29.777Z,55.70
2019-03-24T11:58:05.670Z,56.80
2019-03-24T12:00:39.463Z,56.30
2019-03-24T12:03:09.029Z,56.40
2019-03-24T12:05:38.573Z,54.80
2019-03-24T12:08:08.321Z,54.80
2019-03-24T12:10:37.871Z,55.40
2019-03-24T12:13:07.499Z,53.90
2019-03-24T12:15:37.045Z,51.90
2019-03-24T12:18:06.572Z,51.90
2019-03-24T12:20:36.045Z,54.90
2019-03-24T12:23:05.714Z,55.80
2019-03-24T12:25:35.261Z,52.60
2019-03-24T12:28:04.715Z,50.90
2019-03-24T12:30:34.268Z,52.10
2019-03-24T12:33:03.772Z,52.10
2019-03-24T12:35:33.249Z,51.20
2019-03-24T12:38:02.836Z,51.50
2019-03-24T12:40:32.402Z,52.30
2019-03-24T12:43:01.963Z,49.00
2019-03-24T12:45:33.680Z,48.90
2019-03-24T12:48:03.144Z,49.20
2019-03-24T12:50:32.625Z,48.00
2019-03-24T12:53:02.129Z,48.00
2019-03-24T12:55:31.603Z,45.70
2019-03-24T12:58:01.011Z,45.70
2019-03-24T13:00:34.403Z,46.80
2019-03-24T13:03:04.272Z,47.10
2019-03-24T13:05:33.854Z,47.60
2019-03-24T13:08:16.016Z,47.00
2019-03-24T13:10:46.159Z,44.90
2019-03-24T13:13:15.638Z,45.00
2019-03-24T13:15:45.202Z,44.30
2019-03-24T13:18:14.766Z,45.70
2019-03-24T13:20:44.240Z,46.90
2019-03-24T13:23:13.773Z,46.90
2019-03-24T13:25:43.740Z,44.90
2019-03-24T13:28:13.180Z,45.10
2019-03-24T13:30:42.645Z,44.20
2019-03-24T13:33:12.194Z,43.20
2019-03-24T13:35:42.685Z,42.30
2019-03-24T13:38:12.161Z,41.90
2019-03-24T13:40:41.656Z,43.80
2019-03-24T13:43:11.061Z,43.00
2019-03-24T13:45:40.644Z,43.10
2019-03-24T13:48:10.366Z,40.70
2019-03-24T13:50:39.931Z,43.00
2019-03-24T13:53:09.689Z,43.00
2019-03-24T13:55:39.157Z,40.70
2019-03-24T13:58:09.007Z,41.20
2019-03-24T14:00:38.393Z,41.30
2019-03-24T14:03:08.012Z,42.90
2019-03-24T14:05:37.882Z,41.70
2019-03-24T14:08:07.644Z,41.30
2019-03-24T14:10:37.116Z,41.70
2019-03-24T14:13:06.597Z,40.70
2019-03-24T14:15:36.129Z,40.90
2019-03-24T14:18:06.121Z,42.80
2019-03-24T14:20:43.332Z,41.90
2019-03-24T14:23:07.256Z,41.60
2019-03-24T14:25:36.826Z,42.30
2019-03-24T14:28:06.398Z,40.80
2019-03-24T14:30:46.552Z,42.50
2019-03-24T14:33:16.208Z,42.20
2019-03-24T14:35:45.884Z,41.90
2019-03-24T14:38:15.517Z,43.00
2019-03-24T14:40:45.462Z,41.60
2019-03-24T14:43:15.356Z,42.50
2019-03-24T14:45:44.827Z,41.80
2019-03-24T14:48:14.372Z,41.60
2019-03-24T14:50:53.877Z,41.60
2019-03-24T14:53:15.432Z,42.20
2019-03-24T14:55:44.927Z,42.40
2019-03-24T14:58:14.509Z,42.80
2019-03-24T15:00:44.402Z,41.90
2019-03-24T15:03:14.298Z,43.60
2019-03-24T15:05:43.849Z,42.40
2019-03-24T15:08:13.957Z,43.80
2019-03-24T15:10:43.496Z,43.10
2019-03-24T15:13:13.357Z,42.90
2019-03-24T15:15:42.822Z,42.80
2019-03-24T15:18:12.305Z,42.10
2019-03-24T15:20:41.847Z,42.10
2019-03-24T15:23:11.322Z,43.00
2019-03-24T15:25:40.768Z,43.10
2019-03-24T15:28:10.225Z,42.50
2019-03-24T15:30:39.689Z,43.20
2019-03-24T15:33:09.285Z,42.90
2019-03-24T15:35:38.868Z,42.40
2019-03-24T15:38:09.030Z,42.90
2019-03-24T15:40:39.181Z,42.90
2019-03-24T15:43:08.835Z,42.90
2019-03-24T15:45:38.294Z,42.10
2019-03-24T15:48:07.840Z,42.60
2019-03-24T15:50:37.370Z,43.20
2019-03-24T15:53:06.914Z,43.40
2019-03-24T15:55:36.745Z,43.40
2019-03-24T15:58:06.293Z,43.20
2019-03-24T16:00:46.653Z,43.70
2019-03-24T16:03:16.234Z,43.50
2019-03-24T16:05:45.867Z,43.10
2019-03-24T16:08:15.351Z,43.80
2019-03-24T16:10:44.905Z,45.40
2019-03-24T16:13:14.385Z,45.50
2019-03-24T16:15:43.956Z,43.90
2019-03-24T16:18:13.528Z,44.40
2019-03-24T16:20:42.987Z,44.50
2019-03-24T16:23:13.051Z,46.00
2019-03-24T16:25:42.512Z,46.80
2019-03-24T16:28:11.977Z,46.60
2019-03-24T16:30:41.685Z,46.40
2019-03-24T16:33:11.617Z,46.80
2019-03-24T16:35:41.151Z,45.60
2019-03-24T16:38:10.754Z,47.30
2019-03-24T16:40:41.495Z,48.00
2019-03-24T16:43:11.198Z,48.90
2019-03-24T16:45:40.797Z,49.70
2019-03-24T16:48:11.152Z,50.00
2019-03-24T16:50:40.707Z,50.20
2019-03-24T16:53:10.785Z,50.10
2019-03-24T16:55:40.174Z,50.50
2019-03-24T16:58:09.948Z,51.40
2019-03-24T17:00:39.496Z,53.30
2019-03-24T17:03:09.368Z,51.30
2019-03-24T17:05:39.738Z,52.10
2019-03-24T17:08:09.273Z,51.50
2019-03-24T17:10:38.765Z,50.90
2019-03-24T17:13:08.303Z,50.80
2019-03-24T17:15:37.844Z,51.10
2019-03-24T17:18:07.502Z,51.00
2019-03-24T17:20:37.128Z,51.40
2019-03-24T17:23:06.802Z,51.50
2019-03-24T17:25:36.362Z,52.70
2019-03-24T17:28:06.080Z,52.60
2019-03-24T17:30:35.588Z,52.80
2019-03-24T17:33:05.438Z,53.40
2019-03-24T17:35:35.249Z,53.80
2019-03-24T17:38:04.862Z,54.50
2019-03-24T17:40:38.806Z,54.30
2019-03-24T17:43:05.625Z,55.30
2019-03-24T17:45:35.144Z,56.60
2019-03-24T17:48:04.718Z,56.20
2019-03-24T17:50:34.649Z,56.60
2019-03-24T17:53:06.708Z,57.30
2019-03-24T17:55:35.739Z,57.90
2019-03-24T17:58:05.343Z,58.80
2019-03-24T18:00:43.605Z,59.50
2019-03-24T18:03:13.061Z,60.00
2019-03-24T18:05:42.614Z,60.90
2019-03-24T18:08:12.214Z,61.40
2019-03-24T18:10:41.629Z,61.80
2019-03-24T18:13:11.085Z,62.60
2019-03-24T18:15:40.625Z,62.90
2019-03-24T18:18:10.089Z,63.40
2019-03-24T18:20:39.645Z,63.80
2019-03-24T18:23:09.233Z,64.10
2019-03-24T18:25:38.873Z,64.20
2019-03-24T18:28:08.422Z,65.00
2019-03-24T18:30:37.981Z,65.00
2019-03-24T18:33:07.563Z,65.50
2019-03-24T18:35:37.158Z,65.60
2019-03-24T18:38:06.857Z,65.10
2019-03-24T18:40:36.437Z,64.60
2019-03-24T18:43:06.075Z,63.60
2019-03-24T18:45:35.610Z,63.40
2019-03-24T18:48:05.519Z,63.40
2019-03-24T18:50:35.063Z,63.60
2019-03-24T18:53:04.988Z,63.80
2019-03-24T18:55:34.826Z,63.90
2019-03-24T18:58:04.953Z,64.30
2019-03-24T19:00:34.421Z,64.30
2019-03-24T19:03:03.942Z,64.70
2019-03-24T19:05:35.216Z,65.10
2019-03-24T19:08:05.199Z,65.20
2019-03-24T19:10:35.315Z,65.70
2019-03-24T19:13:04.906Z,65.90
2019-03-24T19:15:34.448Z,65.70
2019-03-24T19:18:04.509Z,65.80
2019-03-24T19:20:34.370Z,65.90
2019-03-24T19:23:05.772Z,66.30
2019-03-24T19:25:35.372Z,66.70
2019-03-24T19:28:04.958Z,66.80
2019-03-24T19:30:36.726Z,66.90
2019-03-24T19:33:07.045Z,67.20
2019-03-24T19:35:37.040Z,67.20
2019-03-24T19:38:06.587Z,67.50
2019-03-24T19:40:36.250Z,67.80
2019-03-24T19:43:05.891Z,68.00
2019-03-24T19:45:35.772Z,67.80
2019-03-24T19:48:05.878Z,68.10
2019-03-24T19:50:35.384Z,68.70
2019-03-24T19:53:05.212Z,69.10
2019-03-24T19:55:34.753Z,68.80
2019-03-24T19:58:04.325Z,69.00
2019-03-24T20:00:33.850Z,69.00
2019-03-24T20:03:03.334Z,69.60
2019-03-24T20:05:33.142Z,69.90
2019-03-24T20:08:02.741Z,70.10
2019-03-24T20:10:32.310Z,70.50
2019-03-24T20:13:01.827Z,71.20
2019-03-24T20:15:31.459Z,71.80
2019-03-24T20:18:01.065Z,71.70
2019-03-24T20:20:30.798Z,72.00
2019-03-24T20:23:00.277Z,72.00
2019-03-24T20:25:29.747Z,72.80
2019-03-24T20:27:59.295Z,72.60
2019-03-24T20:30:28.861Z,73.60
2019-03-24T20:32:58.471Z,73.10
2019-03-24T20:35:28.031Z,73.40
2019-03-24T20:37:57.429Z,73.80
2019-03-24T20:40:27.385Z,74.40
2019-03-24T20:42:57.445Z,74.80
2019-03-24T20:45:26.972Z,75.30
2019-03-24T20:47:56.438Z,75.40
2019-03-24T20:50:26.364Z,76.10
2019-03-24T20:53:05.466Z,76.00
2019-03-24T20:55:26.969Z,76.50
2019-03-24T20:57:56.450Z,76.60
2019-03-24T21:00:36.158Z,76.50
2019-03-24T21:03:07.581Z,76.50
2019-03-24T21:05:37.415Z,76.70
2019-03-24T21:08:07.084Z,77.00
2019-03-24T21:10:36.648Z,77.30
2019-03-24T21:13:06.213Z,77.60
2019-03-24T21:15:35.730Z,77.50
2019-03-24T21:18:05.271Z,77.90
2019-03-24T21:20:34.792Z,78.30
2019-03-24T21:23:04.362Z,78.80
2019-03-24T21:25:33.896Z,79.10
2019-03-24T21:28:03.542Z,79.40
2019-03-24T21:30:34.921Z,79.70
2019-03-24T21:33:04.681Z,79.70
2019-03-24T21:35:34.397Z,79.90
2019-03-24T21:38:04.178Z,81.10
2019-03-24T21:40:33.657Z,80.50
2019-03-24T21:43:03.133Z,80.90
2019-03-24T21:45:32.723Z,81.30
2019-03-24T21:48:02.316Z,81.60
2019-03-24T21:50:33.561Z,82.10
2019-03-24T21:53:03.264Z,82.10
2019-03-24T21:55:32.764Z,82.40
2019-03-24T21:58:02.226Z,82.60
2019-03-24T22:00:36.001Z,83.50
2019-03-24T22:03:06.445Z,83.80
2019-03-24T22:05:36.487Z,84.60
2019-03-24T22:08:06.525Z,85.00
2019-03-24T22:10:36.381Z,85.20
2019-03-24T22:13:06.309Z,85.30
2019-03-24T22:15:35.902Z,85.70
2019-03-24T22:18:05.763Z,85.70
2019-03-24T22:20:35.241Z,85.50
2019-03-24T22:23:05.058Z,85.50
2019-03-24T22:25:34.812Z,85.40
2019-03-24T22:28:04.365Z,85.60
2019-03-24T22:30:34.031Z,85.70
2019-03-24T22:33:03.917Z,85.80
2019-03-24T22:35:33.386Z,86.30
2019-03-24T22:38:02.845Z,86.60
2019-03-24T22:40:32.241Z,87.10
2019-03-24T22:43:02.088Z,87.80
2019-03-24T22:45:31.557Z,88.40
2019-03-24T22:48:01.152Z,88.50
2019-03-24T22:50:30.698Z,88.40
2019-03-24T22:53:00.070Z,89.20
2019-03-24T22:55:30.136Z,89.60
2019-03-24T22:58:00.621Z,90.20
2019-03-24T23:00:47.003Z,90.40
2019-03-24T23:03:16.617Z,90.50
2019-03-24T23:05:46.093Z,90.60
2019-03-24T23:08:15.557Z,90.60
2019-03-24T23:10:45.600Z,90.70
2019-03-24T23:13:15.483Z,90.80
2019-03-24T23:15:45.169Z,91.10
2019-03-24T23:18:14.707Z,90.90
2019-03-24T23:20:44.493Z,91.20
2019-03-24T23:23:13.952Z,91.10
2019-03-24T23:25:43.681Z,91.00
2019-03-24T23:28:13.634Z,91.30
2019-03-24T23:30:43.212Z,91.40
2019-03-24T23:33:12.813Z,91.60
2019-03-24T23:35:42.411Z,91.70
2019-03-24T23:38:11.966Z,91.90
2019-03-24T23:40:41.525Z,92.00
2019-03-24T23:43:11.056Z,92.10
2019-03-24T23:45:40.804Z,92.50
2019-03-24T23:48:10.248Z,92.50
2019-03-24T23:50:39.719Z,92.60
2019-03-24T23:53:09.501Z,92.40
2019-03-24T23:55:39.046Z,92.70
2019-03-24T23:58:08.523Z,92.80
